createdAt,value
2019-04-22T00:02:12.940Z,69.00
2019-04-22T00:04:54.539Z,69.40
2019-04-22T00:07:37.242Z,69.30
2019-04-22T00:10:12.086Z,68.50
2019-04-22T00:12:47.077Z,68.20
2019-04-22T00:15:10.091Z,69.20
2019-04-22T00:17:53.787Z,69.70
2019-04-22T00:20:14.442Z,70.40
2019-04-22T00:22:44.658Z,71.30
2019-04-22T00:25:19.784Z,71.30
2019-04-22T00:27:59.054Z,72.10
2019-04-22T00:30:20.971Z,73.40
2019-04-22T00:33:07.889Z,73.00
2019-04-22T00:35:35.533Z,73.30
2019-04-22T00:38:12.182Z,74.20
2019-04-22T00:40:46.088Z,74.60
2019-04-22T00:43:15.429Z,75.20
2019-04-22T00:45:45.948Z,75.70
2019-04-22T00:48:20.680Z,76.10
2019-04-22T00:56:05.606Z,76.70
2019-04-22T00:58:37.874Z,76.40
2019-04-22T01:01:14.094Z,77.90
2019-04-22T01:06:16.090Z,79.10
2019-04-22T01:08:53.745Z,79.40
2019-04-22T01:11:25.090Z,79.50
2019-04-22T01:13:52.175Z,80.90
2019-04-22T01:18:52.264Z,82.30
2019-04-22T01:21:30.268Z,82.00
2019-04-22T01:23:53.234Z,81.50
2019-04-22T01:26:20.205Z,82.30
2019-04-22T01:28:50.040Z,82.30
2019-04-22T01:31:17.944Z,83.20
2019-04-22T01:33:49.655Z,83.60
2019-04-22T01:36:30.313Z,83.90
2019-04-22T01:39:13.394Z,83.80
2019-04-22T01:41:48.892Z,84.60
2019-04-22T01:49:25.590Z,89.20
2019-04-22T01:56:52.622Z,92.40
2019-04-22T01:59:15.703Z,92.70
2019-04-22T02:01:55.102Z,93.40
2019-04-22T02:04:39.749Z,94.60
2019-04-22T02:09:38.415Z,96.00
2019-04-22T02:14:39.911Z,99.30
2019-04-22T02:17:31.543Z,99.90
2019-04-22T02:20:04.035Z,99.90
2019-04-22T02:22:50.802Z,99.90
2019-04-22T02:25:09.070Z,99.90
2019-04-22T02:27:43.757Z,99.90
2019-04-22T02:30:06.008Z,99.90
2019-04-22T02:33:18.443Z,99.90
2019-04-22T02:35:23.990Z,99.90
2019-04-22T02:37:46.245Z,99.90
2019-04-22T02:40:17.470Z,99.90
2019-04-22T02:42:58.768Z,99.90
2019-04-22T02:45:28.785Z,99.90
2019-04-22T02:47:56.246Z,99.90
2019-04-22T02:50:16.083Z,99.90
2019-04-22T02:52:55.690Z,99.90
2019-04-22T02:55:30.348Z,99.90
2019-04-22T02:57:57.941Z,99.90
2019-04-22T03:00:53.851Z,99.90
2019-04-22T03:03:09.148Z,99.90
2019-04-22T03:05:36.498Z,99.90
2019-04-22T03:08:10.294Z,99.90
2019-04-22T03:10:56.527Z,99.90
2019-04-22T03:13:09.216Z,99.90
2019-04-22T03:15:42.565Z,99.90
2019-04-22T03:18:09.998Z,99.90
2019-04-22T03:20:41.997Z,99.90
2019-04-22T03:26:05.031Z,99.90
2019-04-22T03:28:23.668Z,99.90
2019-04-22T03:31:27.358Z,99.90
2019-04-22T03:36:49.245Z,99.90
2019-04-22T03:43:56.114Z,99.90
2019-04-22T03:46:12.932Z,99.90
2019-04-22T03:49:07.209Z,99.90
2019-04-22T03:51:38.791Z,99.90
2019-04-22T03:54:03.491Z,99.90
2019-04-22T03:56:56.407Z,99.90
2019-04-22T03:58:56.934Z,99.90
2019-04-22T04:01:37.146Z,99.90
2019-04-22T04:04:20.985Z,99.90
2019-04-22T04:06:29.680Z,99.90
2019-04-22T04:08:59.261Z,99.90
2019-04-22T04:11:45.556Z,99.90
2019-04-22T04:16:39.159Z,99.90
2019-04-22T04:19:13.146Z,99.90
2019-04-22T04:24:28.653Z,99.90
2019-04-22T04:29:25.621Z,99.90
2019-04-22T04:31:51.350Z,99.90
2019-04-22T04:34:41.121Z,99.90
2019-04-22T04:39:22.190Z,99.90
2019-04-22T04:41:52.107Z,99.90
2019-04-22T04:44:26.697Z,99.90
2019-04-22T04:46:59.271Z,99.90
2019-04-22T04:49:24.538Z,99.90
2019-04-22T04:52:19.991Z,99.90
2019-04-22T04:57:14.459Z,99.90
2019-04-22T05:02:06.639Z,99.90
2019-04-22T05:05:00.043Z,99.90
2019-04-22T05:07:09.028Z,99.90
2019-04-22T05:14:32.303Z,99.90
2019-04-22T05:19:31.994Z,99.90
2019-04-22T05:22:07.765Z,99.90
2019-04-22T05:24:38.107Z,99.90
2019-04-22T05:27:19.714Z,99.90
2019-04-22T05:30:07.436Z,99.90
2019-04-22T05:32:12.030Z,99.90
2019-04-22T05:34:44.169Z,99.90
2019-04-22T05:37:14.690Z,99.90
2019-04-22T05:39:44.948Z,99.90
2019-04-22T05:42:16.479Z,99.90
2019-04-22T05:44:49.661Z,99.90
2019-04-22T05:47:19.447Z,99.90
2019-04-22T05:49:48.607Z,99.90
2019-04-22T05:52:20.367Z,99.90
2019-04-22T05:54:54.961Z,99.90
2019-04-22T05:57:29.266Z,99.90
2019-04-22T05:59:59.476Z,99.90
2019-04-22T06:02:41.721Z,99.90
2019-04-22T06:05:00.337Z,99.90
2019-04-22T06:07:37.327Z,99.90
2019-04-22T06:10:04.667Z,99.90
2019-04-22T06:12:29.762Z,99.90
2019-04-22T06:15:24.304Z,99.90
2019-04-22T06:17:47.297Z,99.90
2019-04-22T06:20:15.901Z,99.90
2019-04-22T06:22:50.999Z,99.90
2019-04-22T06:27:57.502Z,99.90
2019-04-22T06:30:23.292Z,99.90
2019-04-22T06:32:53.964Z,99.90
2019-04-22T06:35:29.773Z,99.90
2019-04-22T06:40:29.655Z,99.90
2019-04-22T06:43:03.145Z,99.90
2019-04-22T06:45:30.505Z,99.90
2019-04-22T06:50:39.221Z,99.90
2019-04-22T06:53:03.102Z,99.90
2019-04-22T06:58:04.791Z,99.90
2019-04-22T07:03:31.719Z,99.90
2019-04-22T07:05:46.380Z,99.90
2019-04-22T07:10:47.827Z,99.90
2019-04-22T07:13:23.582Z,99.90
2019-04-22T07:15:50.585Z,99.90
2019-04-22T07:18:24.667Z,99.90
2019-04-22T07:20:51.130Z,99.90
2019-04-22T07:25:52.132Z,99.90
2019-04-22T07:28:21.599Z,99.90
2019-04-22T07:31:00.600Z,99.90
2019-04-22T07:36:23.442Z,99.90
2019-04-22T07:40:59.254Z,99.90
2019-04-22T07:43:51.637Z,99.90
2019-04-22T07:46:10.879Z,99.90
2019-04-22T07:48:46.805Z,99.90
2019-04-22T07:51:10.085Z,99.90
2019-04-22T07:53:39.215Z,99.90
2019-04-22T07:56:15.738Z,99.90
2019-04-22T07:58:42.071Z,99.90
2019-04-22T08:01:14.073Z,99.90
2019-04-22T08:04:03.182Z,99.90
2019-04-22T08:06:16.841Z,99.90
2019-04-22T08:08:55.585Z,99.90
2019-04-22T08:11:37.423Z,99.90
2019-04-22T08:13:47.058Z,99.90
2019-04-22T08:16:26.258Z,99.90
2019-04-22T08:18:56.835Z,99.90
2019-04-22T08:21:26.892Z,99.90
2019-04-22T08:24:01.201Z,99.90
2019-04-22T08:26:29.719Z,99.90
2019-04-22T08:28:59.063Z,99.90
2019-04-22T08:31:35.703Z,99.90
2019-04-22T08:34:01.969Z,99.90
2019-04-22T08:36:32.266Z,99.90
2019-04-22T08:39:08.212Z,99.90
2019-04-22T08:44:35.490Z,99.90
2019-04-22T08:46:40.997Z,99.90
2019-04-22T08:49:13.055Z,99.90
2019-04-22T08:51:42.393Z,99.90
2019-04-22T08:54:11.893Z,99.90
2019-04-22T08:56:45.945Z,99.50
2019-04-22T09:01:50.731Z,96.10
2019-04-22T09:04:16.618Z,98.50
2019-04-22T09:07:09.163Z,98.70
2019-04-22T09:09:27.225Z,99.90
2019-04-22T09:12:00.223Z,99.80
2019-04-22T09:17:07.445Z,96.60
2019-04-22T09:19:30.007Z,95.60
2019-04-22T09:22:26.600Z,95.20
2019-04-22T09:24:46.968Z,93.00
2019-04-22T09:27:26.048Z,94.90
2019-04-22T09:29:50.090Z,95.20
2019-04-22T09:32:27.242Z,96.10
2019-04-22T09:34:51.750Z,93.90
2019-04-22T09:40:04.532Z,91.60
2019-04-22T09:42:37.221Z,90.80
2019-04-22T09:45:15.128Z,92.50
2019-04-22T09:47:55.086Z,91.90
2019-04-22T09:50:29.173Z,86.80
2019-04-22T09:53:06.145Z,85.40
2019-04-22T09:55:24.356Z,86.10
2019-04-22T09:57:58.851Z,81.50
2019-04-22T10:00:38.050Z,85.60
2019-04-22T10:03:07.225Z,79.70
2019-04-22T10:05:41.222Z,77.00
2019-04-22T10:08:18.687Z,74.20
2019-04-22T10:10:46.871Z,77.00
2019-04-22T10:13:14.100Z,80.90
2019-04-22T10:15:50.189Z,77.30
2019-04-22T10:18:20.359Z,76.50
2019-04-22T10:20:45.903Z,69.70
2019-04-22T10:23:21.670Z,71.00
2019-04-22T10:25:54.156Z,70.90
2019-04-22T10:28:23.582Z,68.30
2019-04-22T10:33:22.450Z,65.10
2019-04-22T10:35:32.544Z,68.70
2019-04-22T10:38:03.839Z,67.50
2019-04-22T10:40:38.774Z,71.70
2019-04-22T10:43:11.498Z,62.30
2019-04-22T10:45:42.009Z,61.00
2019-04-22T10:48:14.388Z,65.30
2019-04-22T10:50:46.770Z,67.80
2019-04-22T10:53:23.884Z,63.90
2019-04-22T10:55:54.415Z,62.70
2019-04-22T10:58:30.715Z,63.40
2019-04-22T11:01:03.250Z,62.80
2019-04-22T11:03:33.441Z,61.60
2019-04-22T11:06:03.666Z,63.90
2019-04-22T11:08:42.453Z,57.80
2019-04-22T11:11:18.987Z,58.60
2019-04-22T11:13:37.827Z,61.60
2019-04-22T11:16:07.980Z,62.30
2019-04-22T11:18:37.980Z,60.90
2019-04-22T11:21:13.775Z,58.80
2019-04-22T11:23:44.781Z,58.60
2019-04-22T11:26:17.635Z,59.50
2019-04-22T11:28:47.658Z,59.00
2019-04-22T11:31:18.684Z,62.60
2019-04-22T11:33:48.537Z,57.20
2019-04-22T11:36:19.744Z,56.20
2019-04-22T11:38:56.440Z,56.40
2019-04-22T11:41:28.604Z,55.30
2019-04-22T11:43:59.122Z,58.70
2019-04-22T11:46:29.526Z,58.00
2019-04-22T11:49:00.290Z,59.70
2019-04-22T11:51:42.198Z,57.60
2019-04-22T11:54:12.579Z,60.50
2019-04-22T11:56:43.063Z,59.10
2019-04-22T11:59:13.085Z,57.30
2019-04-22T12:01:42.865Z,56.10
2019-04-22T12:04:13.720Z,58.30
2019-04-22T12:06:44.161Z,58.20
2019-04-22T12:09:15.447Z,57.70
2019-04-22T12:11:46.769Z,60.40
2019-04-22T12:14:18.072Z,55.40
2019-04-22T12:16:47.839Z,61.70
2019-04-22T12:19:29.414Z,57.10
2019-04-22T12:22:00.717Z,54.90
2019-04-22T12:24:30.381Z,53.70
2019-04-22T12:27:00.540Z,54.60
2019-04-22T12:29:31.052Z,57.80
2019-04-22T12:32:01.137Z,56.70
2019-04-22T12:34:31.357Z,53.30
2019-04-22T12:37:02.519Z,55.10
2019-04-22T12:39:33.618Z,54.00
2019-04-22T12:42:04.373Z,54.80
2019-04-22T12:44:38.477Z,54.40
2019-04-22T12:47:09.845Z,52.80
2019-04-22T12:49:42.377Z,55.30
2019-04-22T12:52:23.427Z,55.00
2019-04-22T12:54:44.577Z,56.00
2019-04-22T12:57:14.800Z,55.20
2019-04-22T12:59:45.647Z,53.20
2019-04-22T13:02:19.045Z,52.90
2019-04-22T13:04:49.968Z,53.70
2019-04-22T13:07:20.201Z,52.90
2019-04-22T13:09:51.497Z,53.10
2019-04-22T13:12:22.477Z,52.80
2019-04-22T13:14:52.974Z,53.30
2019-04-22T13:17:23.055Z,52.60
2019-04-22T13:19:54.095Z,52.30
2019-04-22T13:22:24.968Z,52.20
2019-04-22T13:24:54.616Z,52.30
2019-04-22T13:27:24.780Z,53.10
2019-04-22T13:29:55.156Z,53.80
2019-04-22T13:32:25.063Z,52.80
2019-04-22T13:35:03.975Z,56.90
2019-04-22T13:37:35.047Z,52.30
2019-04-22T13:40:05.431Z,54.00
2019-04-22T13:42:35.547Z,51.50
2019-04-22T13:45:15.832Z,50.20
2019-04-22T13:48:02.984Z,51.00
2019-04-22T13:50:49.888Z,50.10
2019-04-22T13:53:29.659Z,48.90
2019-04-22T13:58:05.858Z,48.50
2019-04-22T14:00:28.984Z,48.20
2019-04-22T14:03:18.232Z,47.70
2019-04-22T14:05:53.014Z,48.20
2019-04-22T14:08:23.043Z,49.10
2019-04-22T14:10:54.106Z,46.90
2019-04-22T14:13:30.349Z,47.80
2019-04-22T14:16:01.334Z,47.80
2019-04-22T14:18:31.177Z,49.20
2019-04-22T14:21:01.115Z,48.40
2019-04-22T14:23:30.967Z,46.70
2019-04-22T14:26:01.312Z,47.80
2019-04-22T14:28:33.687Z,49.60
2019-04-22T14:31:04.359Z,51.00
2019-04-22T14:33:34.422Z,49.00
2019-04-22T14:36:04.775Z,46.70
2019-04-22T14:38:39.847Z,47.80
2019-04-22T14:41:12.092Z,47.00
2019-04-22T14:44:49.604Z,48.20
2019-04-22T14:46:47.810Z,48.40
2019-04-22T14:49:02.820Z,45.10
2019-04-22T14:51:39.212Z,46.00
2019-04-22T14:54:06.941Z,46.10
2019-04-22T14:56:20.248Z,46.40
2019-04-22T14:58:50.884Z,46.80
2019-04-22T15:01:21.105Z,47.10
2019-04-22T15:03:50.815Z,46.80
2019-04-22T15:06:22.334Z,45.30
2019-04-22T15:08:59.631Z,45.70
2019-04-22T15:11:42.873Z,48.00
2019-04-22T15:14:01.329Z,46.40
2019-04-22T15:16:42.641Z,45.60
2019-04-22T15:19:47.720Z,44.20
2019-04-22T15:22:18.735Z,43.80
2019-04-22T15:24:48.656Z,47.00
2019-04-22T15:27:20.256Z,48.00
2019-04-22T15:29:53.568Z,46.50
2019-04-22T15:32:25.191Z,42.40
2019-04-22T15:34:55.382Z,42.10
2019-04-22T15:37:26.402Z,43.70
2019-04-22T15:39:56.864Z,38.60
2019-04-22T15:42:30.738Z,41.70
2019-04-22T15:44:58.092Z,39.80
2019-04-22T15:47:29.077Z,36.50
2019-04-22T15:50:00.283Z,35.50
2019-04-22T15:52:36.573Z,35.70
2019-04-22T15:55:02.758Z,37.10
2019-04-22T15:57:36.067Z,38.70
2019-04-22T16:00:28.407Z,40.40
2019-04-22T16:02:43.722Z,41.50
2019-04-22T16:05:14.906Z,44.50
2019-04-22T16:07:45.856Z,42.80
2019-04-22T16:10:17.802Z,44.10
2019-04-22T16:12:57.515Z,44.90
2019-04-22T16:15:20.317Z,42.60
2019-04-22T16:17:50.821Z,44.20
2019-04-22T16:20:23.002Z,43.70
2019-04-22T16:23:29.754Z,43.80
2019-04-22T16:26:09.748Z,44.10
2019-04-22T16:28:39.654Z,44.40
2019-04-22T16:31:09.448Z,43.60
2019-04-22T16:33:41.478Z,45.40
2019-04-22T16:36:11.060Z,44.70
2019-04-22T16:38:42.777Z,46.60
2019-04-22T16:41:12.900Z,45.00
2019-04-22T16:43:44.688Z,45.60
2019-04-22T16:46:15.895Z,46.50
2019-04-22T16:48:47.484Z,46.60
2019-04-22T16:51:24.413Z,47.10
2019-04-22T16:53:54.205Z,47.70
2019-04-22T16:56:24.768Z,48.30
2019-04-22T16:58:56.732Z,47.90
2019-04-22T17:02:01.247Z,47.70
2019-04-22T17:04:59.639Z,47.70
2019-04-22T17:07:29.975Z,48.40
2019-04-22T17:09:59.864Z,47.10
2019-04-22T17:12:41.895Z,46.80
2019-04-22T17:15:06.142Z,45.90
2019-04-22T17:17:47.392Z,44.80
2019-04-22T17:20:17.453Z,43.40
2019-04-22T17:23:02.589Z,41.70
2019-04-22T17:25:32.247Z,41.50
2019-04-22T17:28:03.666Z,40.70
2019-04-22T17:30:34.254Z,40.30
2019-04-22T17:33:05.215Z,40.10
2019-04-22T17:35:36.025Z,40.20
2019-04-22T17:38:16.694Z,39.60
2019-04-22T17:40:53.743Z,39.20
2019-04-22T17:43:44.186Z,40.00
2019-04-22T17:46:07.184Z,40.60
2019-04-22T17:49:04.279Z,40.80
2019-04-22T17:51:55.114Z,41.30
2019-04-22T17:54:07.243Z,42.50
2019-04-22T17:56:37.518Z,41.60
2019-04-22T17:59:08.279Z,42.10
2019-04-22T18:01:38.289Z,42.90
2019-04-22T18:03:56.614Z,42.30
2019-04-22T18:06:50.061Z,43.90
2019-04-22T18:09:11.234Z,44.70
2019-04-22T18:11:51.054Z,46.20
2019-04-22T18:14:35.080Z,47.20
2019-04-22T18:16:54.126Z,47.90
2019-04-22T18:19:19.336Z,47.90
2019-04-22T18:21:50.066Z,48.70
2019-04-22T18:24:11.439Z,48.50
2019-04-22T18:26:53.463Z,49.20
2019-04-22T18:29:31.564Z,49.60
2019-04-22T18:31:50.184Z,49.80
2019-04-22T18:34:26.628Z,50.30
2019-04-22T18:36:59.117Z,50.60
2019-04-22T18:39:42.358Z,50.30
2019-04-22T18:42:03.413Z,50.50
2019-04-22T18:44:39.874Z,50.90
2019-04-22T18:47:10.544Z,50.60
2019-04-22T18:49:37.592Z,50.60
2019-04-22T18:52:27.172Z,50.60
2019-04-22T18:55:16.671Z,50.80
2019-04-22T18:58:03.045Z,50.80
2019-04-22T19:00:19.047Z,51.50
2019-04-22T19:02:56.923Z,51.40
2019-04-22T19:05:34.746Z,51.30
2019-04-22T19:08:21.448Z,51.40
2019-04-22T19:16:09.743Z,51.40
2019-04-22T19:18:32.375Z,51.60
2019-04-22T19:20:57.821Z,51.70
2019-04-22T19:23:28.683Z,51.70
2019-04-22T19:25:52.636Z,51.50
2019-04-22T19:31:02.720Z,51.70
2019-04-22T19:33:34.938Z,52.30
2019-04-22T19:36:10.005Z,51.70
2019-04-22T19:38:25.624Z,52.00
2019-04-22T19:41:18.574Z,52.30
2019-04-22T19:43:38.955Z,52.30
2019-04-22T19:46:08.946Z,52.10
2019-04-22T19:48:56.535Z,52.10
2019-04-22T19:51:19.032Z,52.00
2019-04-22T19:53:47.406Z,52.50
2019-04-22T19:56:07.214Z,52.10
2019-04-22T19:58:53.216Z,52.80
2019-04-22T20:01:40.116Z,52.20
2019-04-22T20:04:41.604Z,52.30
2019-04-22T20:06:53.727Z,52.30
2019-04-22T20:09:29.969Z,52.60
2019-04-22T20:12:01.119Z,52.90
2019-04-22T20:14:35.805Z,52.90
2019-04-22T20:16:58.559Z,53.00
2019-04-22T20:19:45.820Z,53.10
2019-04-22T20:22:09.799Z,53.20
2019-04-22T20:24:28.191Z,53.20
2019-04-22T20:27:16.364Z,53.30
2019-04-22T20:29:48.173Z,53.80
2019-04-22T20:32:16.938Z,53.90
2019-04-22T20:34:52.834Z,54.00
2019-04-22T20:37:23.627Z,54.30
2019-04-22T20:39:48.795Z,54.20
2019-04-22T20:42:33.229Z,54.70
2019-04-22T20:44:52.046Z,54.30
2019-04-22T20:47:20.677Z,54.40
2019-04-22T20:50:00.714Z,54.60
2019-04-22T20:55:00.105Z,54.80
2019-04-22T20:57:34.701Z,55.10
2019-04-22T21:00:08.934Z,55.20
2019-04-22T21:02:36.286Z,55.60
2019-04-22T21:05:08.184Z,55.60
2019-04-22T21:07:47.894Z,55.90
2019-04-22T21:10:15.800Z,55.60
2019-04-22T21:12:41.790Z,56.20
2019-04-22T21:15:29.952Z,55.80
2019-04-22T21:17:53.353Z,56.80
2019-04-22T21:20:31.792Z,56.70
2019-04-22T21:22:58.341Z,57.20
2019-04-22T21:25:22.697Z,56.90
2019-04-22T21:28:04.463Z,57.10
2019-04-22T21:30:32.261Z,57.40
2019-04-22T21:32:57.758Z,57.50
2019-04-22T21:35:59.621Z,57.50
2019-04-22T21:38:09.778Z,57.70
2019-04-22T21:40:37.683Z,58.00
2019-04-22T21:43:12.656Z,58.00
2019-04-22T21:45:35.373Z,58.40
2019-04-22T21:48:20.111Z,58.50
2019-04-22T21:53:25.509Z,58.50
2019-04-22T21:55:58.528Z,59.00
2019-04-22T21:58:24.523Z,59.20
2019-04-22T22:01:21.244Z,59.80
2019-04-22T22:03:52.274Z,59.80
2019-04-22T22:06:14.201Z,59.20
2019-04-22T22:08:51.352Z,59.70
2019-04-22T22:11:18.827Z,59.80
2019-04-22T22:13:50.429Z,60.20
2019-04-22T22:16:19.157Z,60.10
2019-04-22T22:19:00.966Z,60.60
2019-04-22T22:24:04.385Z,61.00
2019-04-22T22:26:35.168Z,60.90
2019-04-22T22:29:31.827Z,60.70
2019-04-22T22:31:40.243Z,61.70
2019-04-22T22:34:10.904Z,61.90
2019-04-22T22:36:29.626Z,61.40
2019-04-22T22:39:03.912Z,61.10
2019-04-22T22:41:18.550Z,61.90
2019-04-22T22:43:51.263Z,61.00
2019-04-22T22:46:33.047Z,61.40
2019-04-22T22:49:18.643Z,61.90
2019-04-22T22:54:21.448Z,62.00
2019-04-22T22:56:57.616Z,61.30
2019-04-22T22:59:18.232Z,61.90
2019-04-22T23:01:45.141Z,62.10
2019-04-22T23:04:28.388Z,61.90
2019-04-22T23:07:04.324Z,61.10
2019-04-22T23:09:36.677Z,61.70
2019-04-22T23:12:13.301Z,61.30
2019-04-22T23:14:37.133Z,61.30
2019-04-22T23:16:55.675Z,61.70
2019-04-22T23:19:19.883Z,62.20
2019-04-22T23:21:52.627Z,61.70
2019-04-22T23:24:55.610Z,62.50
2019-04-22T23:27:34.487Z,62.50
2019-04-22T23:30:02.370Z,62.50
2019-04-22T23:32:35.252Z,62.50
2019-04-22T23:35:20.980Z,62.40
2019-04-22T23:37:50.591Z,62.10
2019-04-22T23:42:58.886Z,63.30
2019-04-22T23:45:27.041Z,63.90
2019-04-22T23:47:47.300Z,63.60
2019-04-22T23:50:33.987Z,64.50
2019-04-22T23:53:06.497Z,63.80
2019-04-22T23:55:38.430Z,63.70
2019-04-22T23:58:11.840Z,63.80
